Cameron, Montana
Current Conditions -  °F | °C
As of 3:53 PM on Saturday 20 Dec 2014 (Local Time) from KDLN Reporting Station
Overcast Overcast  
Wind Chill: 36°   Ceiling: 5500
Heat Index: 36°   Visibility: 10mi
Dew Point: 25°   Wind: 3mph
Humidity: 64%   Direction: 190°S
Pressure: 29.83"   Gusts: NA
Location:  45.2°N, 111.68°W
Report Text: KDLN 202253Z AUTO 19003KT 10SM OVC055 02/M04 A2983 RMK AO2 SLP121 T00221039
Loading
Personal Weather Stations






























Interactive Weather Map New forecast layout! Learn more

10-Day Weather Forecast

Advertisements
Track Severe Weather on mobile